sensor_id;sensor_type;location;lat;lon;timestamp;P1;durP1;ratioP1;P2;durP2;ratioP2
74957;SDS011;63741;42.624;26.276;2024-03-25T10:07:22;11.73;;;2.78;;
74957;SDS011;63741;42.624;26.276;2024-03-25T10:09:50;22.88;;;3.20;;
74957;SDS011;63741;42.624;26.276;2024-03-25T10:12:16;7.45;;;2.60;;
74957;SDS011;63741;42.624;26.276;2024-03-25T10:14:42;12.98;;;2.80;;
74957;SDS011;63741;42.624;26.276;2024-03-25T10:17:08;7.70;;;3.20;;
74957;SDS011;63741;42.624;26.276;2024-03-25T10:19:35;6.10;;;3.00;;
74957;SDS011;63741;42.624;26.276;2024-03-25T10:22:05;9.10;;;3.70;;
74957;SDS011;63741;42.624;26.276;2024-03-25T10:27:04;7.30;;;3.30;;
74957;SDS011;63741;42.624;26.276;2024-03-25T10:29:30;9.77;;;3.80;;
74957;SDS011;63741;42.624;26.276;2024-03-25T10:32:00;5.93;;;3.30;;
74957;SDS011;63741;42.624;26.276;2024-03-25T10:34:27;10.45;;;3.30;;
74957;SDS011;63741;42.624;26.276;2024-03-25T10:36:57;5.20;;;3.00;;
74957;SDS011;63741;42.624;26.276;2024-03-25T10:39:27;7.93;;;3.25;;
74957;SDS011;63741;42.624;26.276;2024-03-25T10:41:58;6.55;;;3.45;;
74957;SDS011;63741;42.624;26.276;2024-03-25T10:44:30;9.60;;;3.00;;
74957;SDS011;63741;42.624;26.276;2024-03-25T10:47:02;6.85;;;3.33;;
74957;SDS011;63741;42.624;26.276;2024-03-25T10:49:38;6.35;;;3.10;;
74957;SDS011;63741;42.624;26.276;2024-03-25T10:52:11;5.60;;;2.80;;
74957;SDS011;63741;42.624;26.276;2024-03-25T10:54:38;6.55;;;3.47;;
74957;SDS011;63741;42.624;26.276;2024-03-25T10:57:06;9.15;;;3.15;;
74957;SDS011;63741;42.624;26.276;2024-03-25T10:59:33;6.13;;;3.10;;
74957;SDS011;63741;42.624;26.276;2024-03-25T11:02:07;3.17;;;1.88;;
74957;SDS011;63741;42.624;26.276;2024-03-25T11:04:33;8.18;;;2.85;;
74957;SDS011;63741;42.624;26.276;2024-03-25T11:07:09;2.92;;;2.00;;
74957;SDS011;63741;42.624;26.276;2024-03-25T11:09:38;3.00;;;1.40;;
74957;SDS011;63741;42.624;26.276;2024-03-25T11:12:05;2.47;;;1.27;;
74957;SDS011;63741;42.624;26.276;2024-03-25T11:14:31;3.67;;;1.02;;
74957;SDS011;63741;42.624;26.276;2024-03-25T11:16:59;3.17;;;0.90;;
74957;SDS011;63741;42.624;26.276;2024-03-25T11:19:26;2.60;;;1.10;;
74957;SDS011;63741;42.624;26.276;2024-03-25T11:21:53;2.38;;;1.00;;
74957;SDS011;63741;42.624;26.276;2024-03-25T11:24:29;1.38;;;0.80;;
74957;SDS011;63741;42.624;26.276;2024-03-25T11:26:56;1.63;;;0.85;;
74957;SDS011;63741;42.624;26.276;2024-03-25T11:29:22;4.28;;;1.60;;
74957;SDS011;63741;42.624;26.276;2024-03-25T11:31:51;4.25;;;1.50;;
74957;SDS011;63741;42.624;26.276;2024-03-25T11:34:19;13.18;;;4.45;;
74957;SDS011;63741;42.624;26.276;2024-03-25T11:36:45;5.53;;;1.88;;
74957;SDS011;63741;42.624;26.276;2024-03-25T11:39:14;8.68;;;2.17;;
74957;SDS011;63741;42.624;26.276;2024-03-25T11:41:42;0.90;;;0.55;;
74957;SDS011;63741;42.624;26.276;2024-03-25T11:44:08;4.85;;;1.55;;
74957;SDS011;63741;42.624;26.276;2024-03-25T11:46:36;6.85;;;2.83;;
74957;SDS011;63741;42.624;26.276;2024-03-25T11:49:06;5.88;;;2.33;;
74957;SDS011;63741;42.624;26.276;2024-03-25T11:51:33;6.85;;;1.80;;
74957;SDS011;63741;42.624;26.276;2024-03-25T11:54:03;11.20;;;1.15;;
74957;SDS011;63741;42.624;26.276;2024-03-25T11:56:30;5.57;;;1.85;;
74957;SDS011;63741;42.624;26.276;2024-03-25T11:58:56;6.28;;;2.90;;
74957;SDS011;63741;42.624;26.276;2024-03-25T12:01:23;6.60;;;1.70;;
74957;SDS011;63741;42.624;26.276;2024-03-25T12:03:49;4.22;;;2.38;;
74957;SDS011;63741;42.624;26.276;2024-03-25T12:06:16;3.53;;;1.40;;
74957;SDS011;63741;42.624;26.276;2024-03-25T12:08:42;5.00;;;1.10;;
74957;SDS011;63741;42.624;26.276;2024-03-25T12:11:31;6.07;;;1.20;;
74957;SDS011;63741;42.624;26.276;2024-03-25T12:13:57;5.20;;;1.52;;
74957;SDS011;63741;42.624;26.276;2024-03-25T12:16:24;4.97;;;3.33;;
74957;SDS011;63741;42.624;26.276;2024-03-25T12:18:50;3.88;;;1.20;;
74957;SDS011;63741;42.624;26.276;2024-03-25T12:21:19;1.42;;;0.80;;
74957;SDS011;63741;42.624;26.276;2024-03-25T12:23:46;3.25;;;1.00;;
74957;SDS011;63741;42.624;26.276;2024-03-25T12:26:13;7.60;;;2.00;;
74957;SDS011;63741;42.624;26.276;2024-03-25T12:28:39;8.38;;;3.13;;
74957;SDS011;63741;42.624;26.276;2024-03-25T12:31:08;4.78;;;1.90;;
74957;SDS011;63741;42.624;26.276;2024-03-25T12:33:40;6.50;;;1.13;;
74957;SDS011;63741;42.624;26.276;2024-03-25T12:36:06;3.50;;;0.80;;
74957;SDS011;63741;42.624;26.276;2024-03-25T12:38:34;2.78;;;1.17;;
74957;SDS011;63741;42.624;26.276;2024-03-25T12:41:07;7.78;;;1.10;;
74957;SDS011;63741;42.624;26.276;2024-03-25T12:43:34;1.52;;;0.90;;
74957;SDS011;63741;42.624;26.276;2024-03-25T12:46:01;4.10;;;1.10;;
74957;SDS011;63741;42.624;26.276;2024-03-25T12:48:30;27.70;;;2.20;;
74957;SDS011;63741;42.624;26.276;2024-03-25T12:50:56;3.75;;;0.98;;
74957;SDS011;63741;42.624;26.276;2024-03-25T12:53:22;5.90;;;2.30;;
74957;SDS011;63741;42.624;26.276;2024-03-25T12:55:48;5.18;;;2.15;;
74957;SDS011;63741;42.624;26.276;2024-03-25T13:00:40;4.10;;;1.52;;
74957;SDS011;63741;42.624;26.276;2024-03-25T13:03:06;4.85;;;1.83;;
74957;SDS011;63741;42.624;26.276;2024-03-25T13:05:33;2.58;;;0.90;;
74957;SDS011;63741;42.624;26.276;2024-03-25T13:08:00;5.68;;;1.17;;
74957;SDS011;63741;42.624;26.276;2024-03-25T13:10:27;1.17;;;0.73;;
74957;SDS011;63741;42.624;26.276;2024-03-25T13:12:54;11.95;;;2.58;;
74957;SDS011;63741;42.624;26.276;2024-03-25T13:15:21;6.60;;;4.13;;
74957;SDS011;63741;42.624;26.276;2024-03-25T13:20:13;3.10;;;1.40;;
74957;SDS011;63741;42.624;26.276;2024-03-25T13:25:05;4.28;;;1.80;;
74957;SDS011;63741;42.624;26.276;2024-03-25T13:27:32;4.90;;;1.75;;
74957;SDS011;63741;42.624;26.276;2024-03-25T13:29:58;4.68;;;2.90;;
74957;SDS011;63741;42.624;26.276;2024-03-25T13:32:25;13.60;;;2.80;;
74957;SDS011;63741;42.624;26.276;2024-03-25T13:34:51;4.78;;;1.80;;
74957;SDS011;63741;42.624;26.276;2024-03-25T13:37:18;4.95;;;0.93;;
74957;SDS011;63741;42.624;26.276;2024-03-25T13:39:44;3.72;;;1.40;;
74957;SDS011;63741;42.624;26.276;2024-03-25T13:42:11;5.85;;;2.50;;
74957;SDS011;63741;42.624;26.276;2024-03-25T13:44:37;4.22;;;1.80;;
74957;SDS011;63741;42.624;26.276;2024-03-25T13:47:03;2.08;;;0.85;;
74957;SDS011;63741;42.624;26.276;2024-03-25T13:51:58;3.67;;;1.10;;
74957;SDS011;63741;42.624;26.276;2024-03-25T13:54:25;15.43;;;6.15;;
74957;SDS011;63741;42.624;26.276;2024-03-25T13:56:56;4.03;;;2.00;;
74957;SDS011;63741;42.624;26.276;2024-03-25T13:59:22;3.30;;;1.00;;
74957;SDS011;63741;42.624;26.276;2024-03-25T14:01:48;5.70;;;1.80;;
74957;SDS011;63741;42.624;26.276;2024-03-25T14:04:14;7.03;;;2.00;;
74957;SDS011;63741;42.624;26.276;2024-03-25T14:06:40;3.85;;;1.70;;
74957;SDS011;63741;42.624;26.276;2024-03-25T14:09:07;13.25;;;2.47;;
74957;SDS011;63741;42.624;26.276;2024-03-25T14:11:36;8.32;;;1.45;;
74957;SDS011;63741;42.624;26.276;2024-03-25T14:16:28;9.63;;;3.45;;
74957;SDS011;63741;42.624;26.276;2024-03-25T14:18:54;3.13;;;2.20;;
74957;SDS011;63741;42.624;26.276;2024-03-25T14:21:20;4.20;;;2.75;;
74957;SDS011;63741;42.624;26.276;2024-03-25T14:23:46;9.40;;;3.97;;
74957;SDS011;63741;42.624;26.276;2024-03-25T14:26:12;7.10;;;2.90;;
74957;SDS011;63741;42.624;26.276;2024-03-25T14:28:42;18.30;;;7.55;;
74957;SDS011;63741;42.624;26.276;2024-03-25T14:31:08;13.55;;;6.40;;
74957;SDS011;63741;42.624;26.276;2024-03-25T14:36:00;15.57;;;8.85;;
74957;SDS011;63741;42.624;26.276;2024-03-25T14:40:51;8.02;;;4.32;;
74957;SDS011;63741;42.624;26.276;2024-03-25T14:43:18;5.93;;;2.97;;
74957;SDS011;63741;42.624;26.276;2024-03-25T14:45:45;5.05;;;1.58;;
74957;SDS011;63741;42.624;26.276;2024-03-25T14:48:11;5.72;;;2.58;;
74957;SDS011;63741;42.624;26.276;2024-03-25T14:50:37;5.15;;;2.15;;
74957;SDS011;63741;42.624;26.276;2024-03-25T14:53:03;2.25;;;1.20;;
74957;SDS011;63741;42.624;26.276;2024-03-25T14:55:32;2.90;;;1.00;;
74957;SDS011;63741;42.624;26.276;2024-03-25T14:57:57;1.88;;;1.02;;
74957;SDS011;63741;42.624;26.276;2024-03-25T15:00:23;2.40;;;1.20;;
74957;SDS011;63741;42.624;26.276;2024-03-25T15:05:18;3.08;;;1.60;;
74957;SDS011;63741;42.624;26.276;2024-03-25T15:07:45;4.55;;;1.73;;
74957;SDS011;63741;42.624;26.276;2024-03-25T15:12:37;5.30;;;2.33;;
74957;SDS011;63741;42.624;26.276;2024-03-25T15:15:04;5.55;;;2.80;;
74957;SDS011;63741;42.624;26.276;2024-03-25T15:20:02;1.73;;;1.00;;
74957;SDS011;63741;42.624;26.276;2024-03-25T15:22:29;8.07;;;5.72;;
74957;SDS011;63741;42.624;26.276;2024-03-25T15:24:55;3.53;;;2.20;;
74957;SDS011;63741;42.624;26.276;2024-03-25T15:27:21;3.25;;;1.42;;
74957;SDS011;63741;42.624;26.276;2024-03-25T15:29:47;3.40;;;2.22;;
74957;SDS011;63741;42.624;26.276;2024-03-25T15:32:13;5.60;;;2.63;;
74957;SDS011;63741;42.624;26.276;2024-03-25T15:34:39;8.52;;;4.75;;
74957;SDS011;63741;42.624;26.276;2024-03-25T15:37:05;19.40;;;9.98;;
74957;SDS011;63741;42.624;26.276;2024-03-25T15:39:31;4.63;;;2.78;;
74957;SDS011;63741;42.624;26.276;2024-03-25T15:41:57;7.13;;;3.55;;
74957;SDS011;63741;42.624;26.276;2024-03-25T15:44:23;5.88;;;3.10;;
74957;SDS011;63741;42.624;26.276;2024-03-25T15:46:49;6.20;;;4.57;;
74957;SDS011;63741;42.624;26.276;2024-03-25T15:49:15;4.45;;;2.38;;
74957;SDS011;63741;42.624;26.276;2024-03-25T15:51:41;2.85;;;1.40;;
74957;SDS011;63741;42.624;26.276;2024-03-25T15:54:06;5.32;;;1.80;;
74957;SDS011;63741;42.624;26.276;2024-03-25T15:56:32;3.53;;;2.10;;
74957;SDS011;63741;42.624;26.276;2024-03-25T15:58:59;16.73;;;10.93;;
74957;SDS011;63741;42.624;26.276;2024-03-25T16:01:25;8.43;;;4.97;;
74957;SDS011;63741;42.624;26.276;2024-03-25T16:03:51;5.72;;;3.33;;
74957;SDS011;63741;42.624;26.276;2024-03-25T16:06:17;4.32;;;2.30;;
74957;SDS011;63741;42.624;26.276;2024-03-25T16:08:43;6.63;;;4.00;;
74957;SDS011;63741;42.624;26.276;2024-03-25T16:11:18;15.70;;;10.57;;
74957;SDS011;63741;42.624;26.276;2024-03-25T16:13:44;11.18;;;6.75;;
74957;SDS011;63741;42.624;26.276;2024-03-25T16:16:11;6.80;;;5.00;;
74957;SDS011;63741;42.624;26.276;2024-03-25T16:18:37;5.50;;;3.50;;
74957;SDS011;63741;42.624;26.276;2024-03-25T16:21:13;7.35;;;3.85;;
74957;SDS011;63741;42.624;26.276;2024-03-25T16:23:41;7.53;;;4.70;;
74957;SDS011;63741;42.624;26.276;2024-03-25T16:26:07;6.28;;;3.55;;
74957;SDS011;63741;42.624;26.276;2024-03-25T16:28:33;5.65;;;3.20;;
74957;SDS011;63741;42.624;26.276;2024-03-25T16:31:02;7.68;;;4.57;;
74957;SDS011;63741;42.624;26.276;2024-03-25T16:33:29;11.32;;;4.85;;
74957;SDS011;63741;42.624;26.276;2024-03-25T16:35:56;11.48;;;6.65;;
74957;SDS011;63741;42.624;26.276;2024-03-25T16:38:22;13.98;;;8.95;;
74957;SDS011;63741;42.624;26.276;2024-03-25T16:40:48;8.00;;;4.40;;
74957;SDS011;63741;42.624;26.276;2024-03-25T16:43:18;7.53;;;4.60;;
74957;SDS011;63741;42.624;26.276;2024-03-25T16:45:44;18.85;;;7.50;;
74957;SDS011;63741;42.624;26.276;2024-03-25T16:48:10;35.72;;;18.75;;
74957;SDS011;63741;42.624;26.276;2024-03-25T16:50:36;66.20;;;27.52;;
74957;SDS011;63741;42.624;26.276;2024-03-25T16:53:02;58.95;;;23.40;;
74957;SDS011;63741;42.624;26.276;2024-03-25T16:55:28;20.25;;;10.68;;
74957;SDS011;63741;42.624;26.276;2024-03-25T16:57:54;21.40;;;10.02;;
74957;SDS011;63741;42.624;26.276;2024-03-25T17:00:20;28.73;;;12.27;;
74957;SDS011;63741;42.624;26.276;2024-03-25T17:02:46;22.65;;;10.70;;
74957;SDS011;63741;42.624;26.276;2024-03-25T17:05:12;16.40;;;8.35;;
74957;SDS011;63741;42.624;26.276;2024-03-25T17:07:39;17.55;;;8.20;;
74957;SDS011;63741;42.624;26.276;2024-03-25T17:10:05;12.45;;;7.22;;
74957;SDS011;63741;42.624;26.276;2024-03-25T17:12:34;18.27;;;10.07;;
74957;SDS011;63741;42.624;26.276;2024-03-25T17:15:03;21.83;;;12.30;;
74957;SDS011;63741;42.624;26.276;2024-03-25T17:17:30;23.77;;;12.27;;
74957;SDS011;63741;42.624;26.276;2024-03-25T17:20:03;21.83;;;10.95;;
74957;SDS011;63741;42.624;26.276;2024-03-25T17:22:39;19.35;;;10.60;;
74957;SDS011;63741;42.624;26.276;2024-03-25T17:25:05;22.85;;;11.45;;
74957;SDS011;63741;42.624;26.276;2024-03-25T17:27:31;19.90;;;11.32;;
74957;SDS011;63741;42.624;26.276;2024-03-25T17:29:57;24.27;;;12.57;;
74957;SDS011;63741;42.624;26.276;2024-03-25T17:32:23;39.50;;;19.60;;
74957;SDS011;63741;42.624;26.276;2024-03-25T17:34:48;49.22;;;21.13;;
74957;SDS011;63741;42.624;26.276;2024-03-25T17:37:14;48.40;;;23.42;;
74957;SDS011;63741;42.624;26.276;2024-03-25T17:39:40;57.88;;;25.00;;
74957;SDS011;63741;42.624;26.276;2024-03-25T17:42:06;66.93;;;26.58;;
74957;SDS011;63741;42.624;26.276;2024-03-25T17:44:32;47.33;;;19.88;;
74957;SDS011;63741;42.624;26.276;2024-03-25T17:46:58;36.67;;;13.82;;
74957;SDS011;63741;42.624;26.276;2024-03-25T17:49:26;24.83;;;11.27;;
74957;SDS011;63741;42.624;26.276;2024-03-25T17:51:52;12.68;;;6.90;;
74957;SDS011;63741;42.624;26.276;2024-03-25T17:54:18;23.58;;;9.68;;
74957;SDS011;63741;42.624;26.276;2024-03-25T17:56:44;29.45;;;11.07;;
74957;SDS011;63741;42.624;26.276;2024-03-25T17:59:11;24.58;;;9.88;;
74957;SDS011;63741;42.624;26.276;2024-03-25T18:01:37;23.67;;;11.68;;
74957;SDS011;63741;42.624;26.276;2024-03-25T18:04:03;44.92;;;24.38;;
74957;SDS011;63741;42.624;26.276;2024-03-25T18:06:31;56.28;;;31.27;;
74957;SDS011;63741;42.624;26.276;2024-03-25T18:08:57;65.40;;;36.20;;
74957;SDS011;63741;42.624;26.276;2024-03-25T18:11:23;73.00;;;39.15;;
74957;SDS011;63741;42.624;26.276;2024-03-25T18:13:49;76.28;;;39.63;;
74957;SDS011;63741;42.624;26.276;2024-03-25T18:16:15;83.55;;;39.28;;
74957;SDS011;63741;42.624;26.276;2024-03-25T18:18:41;74.28;;;38.58;;
74957;SDS011;63741;42.624;26.276;2024-03-25T18:21:07;59.65;;;32.03;;
74957;SDS011;63741;42.624;26.276;2024-03-25T18:23:32;43.10;;;23.98;;
74957;SDS011;63741;42.624;26.276;2024-03-25T18:25:58;40.40;;;22.85;;
74957;SDS011;63741;42.624;26.276;2024-03-25T18:28:25;54.13;;;29.38;;
74957;SDS011;63741;42.624;26.276;2024-03-25T18:30:54;23.52;;;13.65;;
74957;SDS011;63741;42.624;26.276;2024-03-25T18:33:22;16.42;;;8.88;;
74957;SDS011;63741;42.624;26.276;2024-03-25T18:35:48;11.32;;;6.75;;
74957;SDS011;63741;42.624;26.276;2024-03-25T18:38:14;10.82;;;5.43;;
74957;SDS011;63741;42.624;26.276;2024-03-25T18:40:40;16.75;;;6.07;;
74957;SDS011;63741;42.624;26.276;2024-03-25T18:43:06;25.10;;;10.45;;
74957;SDS011;63741;42.624;26.276;2024-03-25T18:45:32;21.90;;;8.50;;
74957;SDS011;63741;42.624;26.276;2024-03-25T18:47:58;17.65;;;6.28;;
74957;SDS011;63741;42.624;26.276;2024-03-25T18:50:24;16.38;;;6.00;;
74957;SDS011;63741;42.624;26.276;2024-03-25T18:55:15;7.57;;;4.13;;
74957;SDS011;63741;42.624;26.276;2024-03-25T18:57:42;6.25;;;3.47;;
74957;SDS011;63741;42.624;26.276;2024-03-25T19:00:08;8.20;;;3.95;;
74957;SDS011;63741;42.624;26.276;2024-03-25T19:02:36;7.72;;;3.60;;
74957;SDS011;63741;42.624;26.276;2024-03-25T19:05:03;8.73;;;3.45;;
74957;SDS011;63741;42.624;26.276;2024-03-25T19:07:30;6.88;;;3.13;;
74957;SDS011;63741;42.624;26.276;2024-03-25T19:09:56;5.55;;;3.10;;
74957;SDS011;63741;42.624;26.276;2024-03-25T19:12:22;11.07;;;3.50;;
74957;SDS011;63741;42.624;26.276;2024-03-25T19:14:48;5.43;;;2.30;;
74957;SDS011;63741;42.624;26.276;2024-03-25T19:17:14;8.20;;;2.83;;
74957;SDS011;63741;42.624;26.276;2024-03-25T19:19:40;5.53;;;2.10;;
74957;SDS011;63741;42.624;26.276;2024-03-25T19:22:05;5.50;;;2.67;;
74957;SDS011;63741;42.624;26.276;2024-03-25T19:24:31;12.95;;;3.67;;
74957;SDS011;63741;42.624;26.276;2024-03-25T19:26:58;11.85;;;6.85;;
74957;SDS011;63741;42.624;26.276;2024-03-25T19:29:25;23.38;;;14.85;;
74957;SDS011;63741;42.624;26.276;2024-03-25T19:31:50;21.20;;;12.55;;
74957;SDS011;63741;42.624;26.276;2024-03-25T19:34:16;16.27;;;7.78;;
74957;SDS011;63741;42.624;26.276;2024-03-25T19:36:42;7.13;;;4.25;;
74957;SDS011;63741;42.624;26.276;2024-03-25T19:39:08;9.05;;;4.82;;
74957;SDS011;63741;42.624;26.276;2024-03-25T19:41:34;3.97;;;1.88;;
74957;SDS011;63741;42.624;26.276;2024-03-25T19:44:00;10.35;;;3.13;;
74957;SDS011;63741;42.624;26.276;2024-03-25T19:46:27;6.25;;;2.78;;
74957;SDS011;63741;42.624;26.276;2024-03-25T19:48:53;3.70;;;1.80;;
74957;SDS011;63741;42.624;26.276;2024-03-25T19:51:19;2.70;;;1.30;;
74957;SDS011;63741;42.624;26.276;2024-03-25T19:53:45;2.22;;;1.25;;
74957;SDS011;63741;42.624;26.276;2024-03-25T19:56:11;3.13;;;1.27;;
74957;SDS011;63741;42.624;26.276;2024-03-25T19:58:36;6.55;;;1.42;;
74957;SDS011;63741;42.624;26.276;2024-03-25T20:01:06;3.90;;;1.40;;
74957;SDS011;63741;42.624;26.276;2024-03-25T20:03:32;2.33;;;1.20;;
74957;SDS011;63741;42.624;26.276;2024-03-25T20:06:00;2.80;;;1.08;;
74957;SDS011;63741;42.624;26.276;2024-03-25T20:08:29;3.38;;;1.30;;
74957;SDS011;63741;42.624;26.276;2024-03-25T20:10:55;3.83;;;1.10;;
74957;SDS011;63741;42.624;26.276;2024-03-25T20:13:22;3.30;;;1.08;;
74957;SDS011;63741;42.624;26.276;2024-03-25T20:15:48;7.07;;;1.50;;
74957;SDS011;63741;42.624;26.276;2024-03-25T20:18:14;3.40;;;1.85;;
74957;SDS011;63741;42.624;26.276;2024-03-25T20:20:40;2.55;;;1.30;;
74957;SDS011;63741;42.624;26.276;2024-03-25T20:23:06;2.58;;;1.10;;
74957;SDS011;63741;42.624;26.276;2024-03-25T20:25:33;2.60;;;1.20;;
74957;SDS011;63741;42.624;26.276;2024-03-25T20:30:25;2.65;;;1.30;;
74957;SDS011;63741;42.624;26.276;2024-03-25T20:32:51;2.90;;;1.23;;
74957;SDS011;63741;42.624;26.276;2024-03-25T20:35:16;2.08;;;1.00;;
74957;SDS011;63741;42.624;26.276;2024-03-25T20:37:42;2.25;;;1.10;;
74957;SDS011;63741;42.624;26.276;2024-03-25T20:40:08;2.00;;;0.90;;
74957;SDS011;63741;42.624;26.276;2024-03-25T20:42:34;2.88;;;1.10;;
74957;SDS011;63741;42.624;26.276;2024-03-25T20:45:00;9.80;;;1.42;;
74957;SDS011;63741;42.624;26.276;2024-03-25T20:47:26;1.92;;;1.20;;
74957;SDS011;63741;42.624;26.276;2024-03-25T20:49:52;1.90;;;0.90;;
74957;SDS011;63741;42.624;26.276;2024-03-25T20:52:18;1.80;;;1.00;;
74957;SDS011;63741;42.624;26.276;2024-03-25T20:54:44;3.92;;;1.63;;
74957;SDS011;63741;42.624;26.276;2024-03-25T20:57:09;3.28;;;1.10;;
74957;SDS011;63741;42.624;26.276;2024-03-25T20:59:35;3.35;;;1.15;;
74957;SDS011;63741;42.624;26.276;2024-03-25T21:02:01;16.00;;;1.30;;
74957;SDS011;63741;42.624;26.276;2024-03-25T21:04:27;4.95;;;0.93;;
74957;SDS011;63741;42.624;26.276;2024-03-25T21:06:53;5.72;;;0.80;;
74957;SDS011;63741;42.624;26.276;2024-03-25T21:09:19;2.75;;;1.30;;
74957;SDS011;63741;42.624;26.276;2024-03-25T21:11:45;3.05;;;1.00;;
74957;SDS011;63741;42.624;26.276;2024-03-25T21:14:11;1.95;;;1.00;;
74957;SDS011;63741;42.624;26.276;2024-03-25T21:16:36;2.10;;;0.95;;
74957;SDS011;63741;42.624;26.276;2024-03-25T21:19:02;1.58;;;0.80;;
74957;SDS011;63741;42.624;26.276;2024-03-25T21:21:28;1.65;;;0.90;;
74957;SDS011;63741;42.624;26.276;2024-03-25T21:23:54;9.43;;;1.17;;
74957;SDS011;63741;42.624;26.276;2024-03-25T21:26:20;52.60;;;2.60;;
74957;SDS011;63741;42.624;26.276;2024-03-25T21:28:49;43.90;;;2.90;;
74957;SDS011;63741;42.624;26.276;2024-03-25T21:31:15;2.25;;;0.80;;
74957;SDS011;63741;42.624;26.276;2024-03-25T21:33:40;3.30;;;0.80;;
74957;SDS011;63741;42.624;26.276;2024-03-25T21:36:07;4.32;;;0.75;;
74957;SDS011;63741;42.624;26.276;2024-03-25T21:38:33;2.20;;;0.80;;
74957;SDS011;63741;42.624;26.276;2024-03-25T21:40:59;2.80;;;0.73;;
74957;SDS011;63741;42.624;26.276;2024-03-25T21:43:25;3.38;;;0.63;;
74957;SDS011;63741;42.624;26.276;2024-03-25T21:45:51;1.27;;;0.60;;
74957;SDS011;63741;42.624;26.276;2024-03-25T21:48:17;1.52;;;0.77;;
74957;SDS011;63741;42.624;26.276;2024-03-25T21:53:38;2.17;;;0.80;;
74957;SDS011;63741;42.624;26.276;2024-03-25T21:56:04;3.50;;;1.00;;
74957;SDS011;63741;42.624;26.276;2024-03-25T21:58:30;2.33;;;1.00;;
74957;SDS011;63741;42.624;26.276;2024-03-25T22:00:56;2.00;;;0.90;;
74957;SDS011;63741;42.624;26.276;2024-03-25T22:03:22;1.80;;;0.80;;
74957;SDS011;63741;42.624;26.276;2024-03-25T22:05:47;4.55;;;1.00;;
74957;SDS011;63741;42.624;26.276;2024-03-25T22:08:13;2.15;;;0.60;;
74957;SDS011;63741;42.624;26.276;2024-03-25T22:10:39;1.88;;;0.75;;
74957;SDS011;63741;42.624;26.276;2024-03-25T22:13:06;1.75;;;0.90;;
74957;SDS011;63741;42.624;26.276;2024-03-25T22:17:59;1.35;;;0.60;;
74957;SDS011;63741;42.624;26.276;2024-03-25T22:20:25;1.35;;;0.70;;
74957;SDS011;63741;42.624;26.276;2024-03-25T22:22:52;1.73;;;0.50;;
74957;SDS011;63741;42.624;26.276;2024-03-25T22:25:18;1.55;;;0.70;;
74957;SDS011;63741;42.624;26.276;2024-03-25T22:27:44;2.33;;;0.73;;
74957;SDS011;63741;42.624;26.276;2024-03-25T22:30:11;1.45;;;0.80;;
74957;SDS011;63741;42.624;26.276;2024-03-25T22:32:37;1.42;;;0.70;;
74957;SDS011;63741;42.624;26.276;2024-03-25T22:35:03;0.90;;;0.60;;
74957;SDS011;63741;42.624;26.276;2024-03-25T22:37:29;3.25;;;0.90;;
74957;SDS011;63741;42.624;26.276;2024-03-25T22:39:55;1.25;;;0.75;;
74957;SDS011;63741;42.624;26.276;2024-03-25T22:42:21;1.30;;;0.60;;
74957;SDS011;63741;42.624;26.276;2024-03-25T22:47:15;1.30;;;0.63;;
74957;SDS011;63741;42.624;26.276;2024-03-25T22:52:07;1.30;;;0.73;;
74957;SDS011;63741;42.624;26.276;2024-03-25T22:54:33;1.40;;;0.70;;
74957;SDS011;63741;42.624;26.276;2024-03-25T22:56:59;1.88;;;0.88;;
74957;SDS011;63741;42.624;26.276;2024-03-25T23:01:51;1.40;;;0.70;;
74957;SDS011;63741;42.624;26.276;2024-03-25T23:04:17;0.82;;;0.57;;
74957;SDS011;63741;42.624;26.276;2024-03-25T23:06:43;1.67;;;0.82;;
74957;SDS011;63741;42.624;26.276;2024-03-25T23:09:09;1.35;;;0.70;;
74957;SDS011;63741;42.624;26.276;2024-03-25T23:11:36;1.35;;;0.60;;
74957;SDS011;63741;42.624;26.276;2024-03-25T23:14:02;1.45;;;0.80;;
74957;SDS011;63741;42.624;26.276;2024-03-25T23:16:28;2.85;;;1.00;;
74957;SDS011;63741;42.624;26.276;2024-03-25T23:18:54;1.73;;;0.70;;
74957;SDS011;63741;42.624;26.276;2024-03-25T23:21:20;1.40;;;0.70;;
74957;SDS011;63741;42.624;26.276;2024-03-25T23:23:46;1.33;;;0.90;;
74957;SDS011;63741;42.624;26.276;2024-03-25T23:26:12;1.60;;;0.75;;
74957;SDS011;63741;42.624;26.276;2024-03-25T23:28:38;1.77;;;0.80;;
74957;SDS011;63741;42.624;26.276;2024-03-25T23:31:03;1.30;;;0.80;;
74957;SDS011;63741;42.624;26.276;2024-03-25T23:33:29;1.60;;;0.90;;
74957;SDS011;63741;42.624;26.276;2024-03-25T23:35:56;1.45;;;0.82;;
74957;SDS011;63741;42.624;26.276;2024-03-25T23:38:22;2.13;;;1.00;;
74957;SDS011;63741;42.624;26.276;2024-03-25T23:40:48;1.58;;;0.80;;
74957;SDS011;63741;42.624;26.276;2024-03-25T23:43:14;1.58;;;0.80;;
74957;SDS011;63741;42.624;26.276;2024-03-25T23:45:40;2.58;;;0.90;;
74957;SDS011;63741;42.624;26.276;2024-03-25T23:48:06;1.27;;;0.80;;
74957;SDS011;63741;42.624;26.276;2024-03-25T23:50:33;1.20;;;0.60;;
74957;SDS011;63741;42.624;26.276;2024-03-25T23:52:59;1.90;;;0.82;;
74957;SDS011;63741;42.624;26.276;2024-03-25T23:55:25;2.03;;;0.80;;
